Time;durP1;ratioP1;P1;durP2;ratioP2;P2;SDS_P1;SDS_P2;PMS_P1;PMS_P2;Temp;Humidity;BMP_temperature;BMP_pressure;BME280_temperature;BME280_humidity;BME280_pressure;Samples;Min_cycle;Max_cycle;Signal;HPM_P1;HPM_P2
2022/10/19 00:02:31;;;;;;;22.37;5.37;;;;;;;7.91;100.00;102698.00;5115812;28;20089;-86
2022/10/19 00:08:36;;;;;;;16.20;5.30;;;;;;;7.92;100.00;102697.00;5115631;28;20046;-86
2022/10/19 00:11:05;;;;;;;16.90;4.88;;;;;;;7.92;100.00;102686.19;5097203;28;20039;-86
2022/10/19 00:14:15;;;;;;;14.40;4.63;;;;;;;7.87;100.00;102686.66;5080056;28;20491;-86
2022/10/19 00:23:17;;;;;;;17.10;4.82;;;;;;;7.81;100.00;102692.69;5115434;28;20377;-86
2022/10/19 00:29:20;;;;;;;16.98;4.65;;;;;;;7.71;100.00;102667.56;5115271;28;20039;-86
2022/10/19 00:39:09;;;;;;;24.08;6.40;;;;;;;7.63;100.00;102652.13;5113599;28;20035;-86
2022/10/19 00:41:46;;;;;;;17.35;5.60;;;;;;;7.67;100.00;102672.41;5096912;28;20047;-86
2022/10/19 00:44:14;;;;;;;11.45;5.15;;;;;;;7.71;100.00;102675.69;5081541;28;20109;-86
2022/10/19 00:46:47;;;;;;;17.58;5.82;;;;;;;7.64;100.00;102672.72;5096723;28;20142;-86
2022/10/19 00:49:18;;;;;;;16.73;5.18;;;;;;;7.61;100.00;102673.03;5096289;28;20031;-85
2022/10/19 00:51:56;;;;;;;14.63;6.05;;;;;;;7.60;100.00;102673.19;5096499;28;20111;-86
2022/10/19 00:54:22;;;;;;;13.90;5.95;;;;;;;7.58;100.00;102673.34;5096386;28;20122;-85
2022/10/19 00:56:50;;;;;;;21.58;6.63;;;;;;;7.58;100.00;102680.59;5079346;28;20059;-86
2022/10/19 00:59:19;;;;;;;18.00;6.75;;;;;;;7.60;100.00;102681.28;5096241;28;20470;-86
2022/10/19 01:01:48;;;;;;;12.15;6.07;;;;;;;7.53;100.00;102679.19;5096560;28;20122;-85
2022/10/19 01:04:45;;;;;;;16.40;5.75;;;;;;;7.57;100.00;102687.81;5114889;28;20032;-86
2022/10/19 01:24:19;;;;;;;12.27;5.32;;;;;;;7.38;100.00;102683.38;5114369;28;20111;-86
2022/10/19 01:30:21;;;;;;;18.08;5.93;;;;;;;7.33;100.00;102678.41;5114418;28;20065;-85
2022/10/19 01:33:03;;;;;;;14.68;6.22;;;;;;;7.26;100.00;102661.09;5095927;28;20042;-85
2022/10/19 01:39:17;;;;;;;15.80;5.93;;;;;;;7.21;100.00;102663.41;5114050;28;20043;-86
2022/10/19 01:45:11;;;;;;;18.85;6.47;;;;;;;7.27;100.00;102675.47;5113965;28;20035;-86
2022/10/19 01:51:06;;;;;;;11.93;5.88;;;;;;;7.13;100.00;102664.16;5113840;28;20108;-85
2022/10/19 02:00:49;;;;;;;11.60;5.37;;;;;;;7.13;100.00;102663.31;5113835;28;20097;-86
2022/10/19 02:03:18;;;;;;;13.77;5.53;;;;;;;7.12;100.00;102667.03;5095492;28;20059;-85
2022/10/19 02:05:46;;;;;;;14.77;6.43;;;;;;;7.08;100.00;102665.59;5095995;28;20027;-85
2022/10/19 02:08:16;;;;;;;13.55;6.15;;;;;;;7.08;100.00;102647.56;5078832;28;20028;-85
2022/10/19 02:10:44;;;;;;;14.13;5.70;;;;;;;7.01;100.00;102635.66;5113580;28;20048;-85
2022/10/19 02:13:12;;;;;;;13.95;6.03;;;;;;;6.97;100.00;102632.41;5115389;28;20467;-85
2022/10/19 02:15:45;;;;;;;17.13;6.75;;;;;;;6.97;100.00;102628.88;5099843;28;20081;-85
2022/10/19 02:18:41;;;;;;;15.02;5.95;;;;;;;7.00;100.00;102642.91;5099919;28;20464;-85
2022/10/19 02:24:41;;;;;;;18.42;6.10;;;;;;;6.92;100.00;102621.19;5088261;28;20490;-85
2022/10/19 02:27:07;;;;;;;15.10;6.13;;;;;;;6.95;100.00;102631.72;5100116;28;20024;-85
2022/10/19 02:29:34;;;;;;;14.30;5.95;;;;;;;6.94;100.00;102631.84;5099204;28;20088;-86
2022/10/19 02:32:01;;;;;;;16.58;5.68;;;;;;;6.88;100.00;102617.09;5117766;28;20356;-86
2022/10/19 02:34:35;;;;;;;13.30;6.57;;;;;;;6.83;100.00;102612.13;5098830;28;20063;-85
2022/10/19 02:40:58;;;;;;;16.10;5.57;;;;;;;6.81;100.00;102608.75;5054631;28;20120;-86
2022/10/19 02:43:27;;;;;;;14.18;6.18;;;;;;;6.83;100.00;102609.44;5116319;28;20540;-86
2022/10/19 02:46:03;;;;;;;13.80;6.68;;;;;;;6.79;100.00;102605.34;5099190;28;20052;-86
2022/10/19 02:48:31;;;;;;;14.75;6.43;;;;;;;6.77;100.00;102603.78;5099012;28;20035;-85
2022/10/19 02:50:59;;;;;;;17.70;6.07;;;;;;;6.71;100.00;102593.59;5098375;28;20059;-85
2022/10/19 02:53:27;;;;;;;13.25;6.18;;;;;;;6.70;100.00;102602.66;5117097;28;20034;-85
2022/10/19 02:55:57;;;;;;;13.73;6.07;;;;;;;6.69;100.00;102607.22;5098597;28;20036;-86
2022/10/19 02:58:23;;;;;;;12.60;5.88;;;;;;;6.66;100.00;102605.66;5098238;28;20034;-86
2022/10/19 03:00:48;;;;;;;16.05;6.47;;;;;;;6.66;100.00;102613.75;5098062;28;20028;-86
2022/10/19 03:03:16;;;;;;;13.97;6.47;;;;;;;6.62;100.00;102596.16;5116351;28;20520;-86
2022/10/19 03:05:44;;;;;;;16.17;6.32;;;;;;;6.62;100.00;102598.84;5081463;28;20106;-86
2022/10/19 03:08:14;;;;;;;11.73;6.28;;;;;;;6.61;100.00;102607.94;5097998;28;20027;-85
2022/10/19 03:14:18;;;;;;;18.63;5.57;;;;;;;6.58;100.00;102616.31;5115982;28;20537;-86
2022/10/19 03:16:46;;;;;;;12.52;6.13;;;;;;;6.58;100.00;102623.56;5082495;28;20035;-85
2022/10/19 04:25:41;;;;;;;8.90;5.10;;;;;;;6.05;100.00;102609.56;5115018;28;20054;-85
2022/10/19 04:28:07;;;;;;;18.80;5.43;;;;;;;6.07;100.00;102614.84;5110179;28;20550;-85
2022/10/19 05:33:07;;;;;;;13.57;6.88;;;;;;;5.64;100.00;102581.91;6315887;22;346798;-84
2022/10/19 05:35:33;;;;;;;16.73;6.35;;;;;;;5.67;100.00;102584.31;6280546;22;20025;-87
2022/10/19 05:37:58;;;;;;;18.13;6.53;;;;;;;5.65;100.00;102580.06;6289467;22;20011;-87
2022/10/19 05:40:24;;;;;;;14.87;6.87;;;;;;;5.60;100.00;102577.78;6262547;22;20029;-88
2022/10/19 05:42:49;;;;;;;15.60;6.73;;;;;;;5.63;100.00;102582.88;6281587;22;20007;-88
2022/10/19 05:45:15;;;;;;;15.75;6.63;;;;;;;5.58;100.00;102583.31;6282274;22;20241;-87
2022/10/19 05:47:40;;;;;;;18.47;7.10;;;;;;;5.50;100.00;102572.38;6282260;22;20043;-84
2022/10/19 05:50:13;;;;;;;18.53;6.47;;;;;;;5.58;100.00;102588.69;6281779;22;20035;-92
2022/10/19 05:52:44;;;;;;;17.27;6.97;;;;;;;5.53;100.00;102582.88;6256397;22;20012;-89
2022/10/19 05:55:10;;;;;;;18.48;7.60;;;;;;;5.52;100.00;102578.50;6257710;22;20414;-92
2022/10/19 05:57:58;;;;;;;;;;;;;;;;;;;;;
2022/10/19 06:00:26;;;;;;;23.52;7.30;;;;;;;5.44;100.00;102568.41;6308928;22;20078;-90
2022/10/19 06:02:56;;;;;;;15.73;7.35;;;;;;;5.49;100.00;102576.06;6256737;22;20014;-91
2022/10/19 06:05:24;;;;;;;16.77;7.15;;;;;;;5.47;100.00;102580.75;6257773;22;20093;-94
2022/10/19 06:07:49;;;;;;;17.17;7.03;;;;;;;5.47;100.00;102575.34;6282516;22;20086;-85
2022/10/19 06:10:14;;;;;;;18.77;7.10;;;;;;;5.43;100.00;102566.72;6282254;22;20041;-85
2022/10/19 06:12:41;;;;;;;16.67;7.60;;;;;;;5.49;100.00;102570.66;6281671;22;20003;-84
2022/10/19 06:15:07;;;;;;;22.15;7.93;;;;;;;5.48;100.00;102563.59;6256651;22;20011;-84
2022/10/19 06:17:32;;;;;;;16.90;7.10;;;;;;;5.45;100.00;102556.66;6231257;22;20092;-84
2022/10/19 06:20:00;;;;;;;20.77;8.20;;;;;;;5.52;100.00;102566.84;6255163;22;20017;-84
2022/10/19 06:22:25;;;;;;;19.77;7.82;;;;;;;5.50;100.00;102556.22;6280809;22;20007;-83
2022/10/19 06:24:50;;;;;;;19.57;8.17;;;;;;;5.49;100.00;102559.06;6308439;22;20006;-84
2022/10/19 06:27:16;;;;;;;18.53;8.60;;;;;;;5.54;100.00;102560.34;6256055;22;20294;-84
2022/10/19 06:29:41;;;;;;;19.37;9.03;;;;;;;5.58;100.00;102561.78;6255215;22;20397;-84
2022/10/19 06:32:10;;;;;;;22.47;8.63;;;;;;;5.62;100.00;102565.91;6280031;22;20337;-85
2022/10/19 06:34:35;;;;;;;22.42;8.70;;;;;;;5.64;100.00;102573.81;6281041;22;20098;-83
2022/10/19 06:37:15;;;;;;;23.00;8.47;;;;;;;5.67;100.00;102587.00;6308679;22;20034;-83
2022/10/19 06:39:40;;;;;;;17.27;8.85;;;;;;;5.68;100.00;102579.78;6308586;22;20015;-84
2022/10/19 06:42:08;;;;;;;19.07;9.20;;;;;;;5.67;100.00;102567.28;6255408;22;20084;-84
2022/10/19 06:44:33;;;;;;;19.67;9.10;;;;;;;5.69;100.00;102571.56;6255985;22;20011;-84
2022/10/19 06:46:59;;;;;;;20.10;8.77;;;;;;;5.77;100.00;102578.91;6281260;22;20029;-85
2022/10/19 06:49:24;;;;;;;23.50;9.05;;;;;;;5.75;100.00;102572.84;6281184;22;20007;-84
2022/10/19 06:51:52;;;;;;;20.97;8.50;;;;;;;5.77;100.00;102574.41;6280652;22;20421;-84
2022/10/19 06:54:17;;;;;;;18.48;9.05;;;;;;;5.86;100.00;102582.59;6281107;22;20003;-84
2022/10/19 06:56:43;;;;;;;21.27;9.20;;;;;;;5.88;100.00;102581.47;6281234;22;20455;-84
2022/10/19 06:59:08;;;;;;;26.70;8.60;;;;;;;5.88;100.00;102576.09;6230420;22;20011;-84
2022/10/19 07:01:37;;;;;;;22.30;8.75;;;;;;;5.96;100.00;102575.38;6255238;22;20081;-84
2022/10/19 07:04:02;;;;;;;18.42;9.05;;;;;;;5.95;100.00;102569.16;6255896;22;20008;-85
2022/10/19 07:06:28;;;;;;;22.73;9.48;;;;;;;6.07;100.00;102571.75;6281083;22;20337;-84
2022/10/19 07:08:53;;;;;;;22.17;9.37;;;;;;;6.13;100.00;102571.16;6308498;22;19999;-83
2022/10/19 07:11:21;;;;;;;23.80;9.57;;;;;;;6.13;100.00;102563.91;6307996;22;20007;-84
2022/10/19 07:13:47;;;;;;;21.02;9.77;;;;;;;6.22;100.00;102567.59;6308106;22;20007;-84
2022/10/19 07:16:15;;;;;;;18.02;9.05;;;;;;;6.28;100.00;102572.41;6253804;22;20367;-84
2022/10/19 07:18:46;;;;;;;22.98;9.38;;;;;;;6.38;100.00;102576.91;6280970;22;20058;-84
2022/10/19 07:21:18;;;;;;;26.30;9.27;;;;;;;6.45;100.00;102581.59;6281010;22;20027;-84
2022/10/19 07:23:46;;;;;;;26.88;9.63;;;;;;;6.49;100.00;102569.50;6308837;22;20004;-84
2022/10/19 07:26:26;;;;;;;17.35;9.43;;;;;;;6.52;100.00;102572.91;6308407;22;20003;-84
2022/10/19 07:28:52;;;;;;;16.77;9.15;;;;;;;6.56;100.00;102567.09;6280891;22;20074;-84
2022/10/19 07:31:20;;;;;;;23.48;9.27;;;;;;;6.66;100.00;102569.75;6255420;22;20048;-85
2022/10/19 07:33:46;;;;;;;21.60;8.32;;;;;;;6.72;100.00;102571.00;6305061;22;20082;-84
2022/10/19 07:36:12;;;;;;;16.25;8.48;;;;;;;6.80;100.00;102576.50;6230308;22;20016;-83
2022/10/19 07:38:39;;;;;;;20.63;9.15;;;;;;;6.85;100.00;102572.38;6280773;22;20007;-83
2022/10/19 07:41:49;;;;;;;21.80;9.00;;;;;;;6.91;100.00;102570.94;6280403;22;20014;-83
2022/10/19 07:44:14;;;;;;;19.83;9.65;;;;;;;6.96;100.00;102570.47;6281685;22;19999;-83
2022/10/19 07:46:40;;;;;;;19.92;8.85;;;;;;;6.96;100.00;102557.81;6280173;22;20016;-83
2022/10/19 07:49:11;;;;;;;23.50;10.40;;;;;;;7.06;100.00;102560.50;6280550;22;20061;-83
2022/10/19 07:51:38;;;;;;;22.93;9.90;;;;;;;7.11;100.00;102563.56;6281084;22;20056;-85
2022/10/19 07:54:04;;;;;;;15.20;9.05;;;;;;;7.13;100.00;102550.78;6307640;22;20011;-85
2022/10/19 07:56:31;;;;;;;21.88;9.48;;;;;;;7.21;100.00;102563.53;6308079;22;20343;-84
2022/10/19 07:58:59;;;;;;;17.00;8.30;;;;;;;7.28;100.00;102558.34;6280253;22;19999;-83
2022/10/19 08:01:29;;;;;;;18.38;9.60;;;;;;;7.37;100.00;102558.31;6307650;22;20007;-86
2022/10/19 08:03:55;;;;;;;17.63;9.23;;;;;;;7.39;100.00;102544.66;6279401;22;20149;-86
2022/10/19 08:06:23;;;;;;;18.63;8.38;;;;;;;7.46;100.00;102540.34;6280092;22;20009;-85
2022/10/19 08:08:49;;;;;;;14.13;8.15;;;;;;;7.51;100.00;102535.34;6280364;22;19999;-85
2022/10/19 08:11:18;;;;;;;19.23;8.50;;;;;;;7.63;100.00;102545.91;6280507;22;20014;-85
2022/10/19 08:13:44;;;;;;;19.80;8.80;;;;;;;7.65;100.00;102550.16;6279265;22;20080;-85
2022/10/19 08:16:22;;;;;;;19.73;8.27;;;;;;;7.74;100.00;102553.78;6307001;22;20376;-85
2022/10/19 08:18:48;;;;;;;20.40;8.77;;;;;;;7.82;100.00;102548.44;6307901;22;20290;-85
2022/10/19 08:21:14;;;;;;;18.40;8.40;;;;;;;7.90;100.00;102536.88;6280313;22;20015;-85
2022/10/19 08:23:40;;;;;;;18.20;8.87;;;;;;;7.94;100.00;102527.41;6279412;22;20360;-85
2022/10/19 08:26:05;;;;;;;23.35;9.55;;;;;;;8.01;100.00;102522.25;6280156;22;20011;-84
2022/10/19 08:28:31;;;;;;;23.37;9.13;;;;;;;8.07;100.00;102514.38;6279950;22;20084;-85
2022/10/19 08:31:11;;;;;;;16.63;8.13;;;;;;;8.15;100.00;102507.28;6306565;22;20014;-89
2022/10/19 08:33:37;;;;;;;19.00;8.35;;;;;;;8.28;100.00;102517.69;6280091;22;20025;-85
2022/10/19 08:36:06;;;;;;;21.73;8.10;;;;;;;8.36;100.00;102515.06;6308373;22;20433;-85
2022/10/19 08:38:34;;;;;;;19.75;7.85;;;;;;;8.41;100.00;102510.00;6306945;22;20054;-85
2022/10/19 08:41:33;;;;;;;13.55;7.75;;;;;;;8.53;100.00;102507.91;6307723;22;20007;-85
2022/10/19 08:44:28;;;;;;;16.90;7.53;;;;;;;8.65;100.00;102501.22;6271622;22;20003;-85
2022/10/19 08:47:15;;;;;;;17.92;7.63;;;;;;;8.81;100.00;102502.28;6280839;22;20004;-85
2022/10/19 08:49:44;;;;;;;20.08;8.23;;;;;;;8.88;100.00;102504.16;6280296;22;20007;-85
2022/10/19 08:52:16;;;;;;;17.92;8.20;;;;;;;9.00;100.00;102507.41;6280426;22;20026;-86
2022/10/19 08:54:56;;;;;;;26.73;11.52;;;;;;;9.11;100.00;102504.41;6280324;22;20145;-86
2022/10/19 08:57:38;;;;;;;16.77;7.37;;;;;;;9.25;100.00;102510.19;6281444;22;20003;-86
2022/10/19 09:00:40;;;;;;;15.20;6.68;;;;;;;9.37;100.00;102510.72;6278853;22;20068;-87
2022/10/19 09:03:34;;;;;;;14.85;7.00;;;;;;;9.50;100.00;102505.66;6307747;22;19995;-85
2022/10/19 09:06:22;;;;;;;16.40;6.63;;;;;;;9.61;100.00;102505.34;6280382;22;20033;-85
2022/10/19 09:08:55;;;;;;;22.58;7.53;;;;;;;9.68;100.00;102493.81;6307152;22;20417;-86
2022/10/19 09:11:37;;;;;;;14.37;6.73;;;;;;;9.82;100.00;102488.56;6280652;22;20004;-86
2022/10/19 09:14:18;;;;;;;15.48;6.15;;;;;;;9.91;100.00;102485.88;6280431;22;20003;-86
2022/10/19 09:16:46;;;;;;;15.27;5.65;;;;;;;10.09;100.00;102494.63;6308610;22;20010;-86
2022/10/19 09:19:21;;;;;;;12.25;5.60;;;;;;;10.23;100.00;102497.66;6309468;22;20003;-86
2022/10/19 09:22:18;;;;;;;16.35;5.93;;;;;;;10.42;100.00;102507.31;6257318;22;20090;-86
2022/10/19 09:25:12;;;;;;;14.63;4.87;;;;;;;10.58;100.00;102522.72;6282200;22;20137;-86
2022/10/19 09:27:39;;;;;;;10.43;4.78;;;;;;;10.67;100.00;102500.81;6281865;22;20014;-86
2022/10/19 09:30:26;;;;;;;16.05;4.88;;;;;;;10.92;100.00;102511.53;6281360;22;19999;-86
2022/10/19 09:33:00;;;;;;;9.38;4.57;;;;;;;11.02;100.00;102497.75;6282063;22;20303;-86
2022/10/19 09:35:44;;;;;;;14.18;3.97;;;;;;;11.21;100.00;102497.28;6281569;22;20033;-86
2022/10/19 09:38:15;;;;;;;10.20;3.90;;;;;;;11.37;100.00;102490.91;6309732;22;20057;-86
2022/10/19 09:40:47;;;;;;;14.20;3.70;;;;;;;11.56;100.00;102489.59;6281493;22;19999;-86
2022/10/19 09:43:22;;;;;;;12.00;3.58;;;;;;;11.68;100.00;102478.28;6282229;22;20000;-86
2022/10/19 09:46:03;;;;;;;10.95;3.45;;;;;;;11.85;98.48;102477.09;6309179;22;20007;-86
2022/10/19 09:48:37;;;;;;;12.30;4.32;;;;;;;12.06;97.62;102483.72;6282222;22;20333;-86
2022/10/19 09:51:10;;;;;;;10.93;3.23;;;;;;;12.21;97.32;102472.84;6281586;22;20148;-86
2022/10/19 09:53:37;;;;;;;12.80;3.58;;;;;;;12.40;95.82;102458.72;6309247;22;20004;-86
2022/10/19 09:56:21;;;;;;;12.43;3.40;;;;;;;12.58;93.84;102458.31;6281326;22;20092;-86
2022/10/19 09:58:52;;;;;;;9.85;3.13;;;;;;;12.71;91.62;102470.41;6308964;22;20007;-85
2022/10/19 10:01:44;;;;;;;10.98;2.90;;;;;;;12.79;92.02;102451.25;6308594;22;20388;-87
2022/10/19 10:04:15;;;;;;;7.63;2.90;;;;;;;12.89;89.93;102448.19;6281514;22;20010;-86
2022/10/19 10:06:45;;;;;;;9.88;2.67;;;;;;;12.95;88.85;102442.84;6308771;22;20000;-86
2022/10/19 10:09:16;;;;;;;7.90;2.90;;;;;;;13.14;89.37;102457.72;6309046;22;19999;-86
2022/10/19 10:11:48;;;;;;;8.07;2.42;;;;;;;13.22;86.93;102453.19;6309011;22;20336;-85
2022/10/19 10:14:38;;;;;;;7.60;2.08;;;;;;;13.32;87.43;102457.28;6281076;22;20011;-87
2022/10/19 10:17:30;;;;;;;11.57;2.63;;;;;;;13.35;85.81;102458.81;6281703;22;20003;-86
2022/10/19 10:20:19;;;;;;;8.63;2.38;;;;;;;13.33;82.91;102458.97;6283685;22;20007;-96
2022/10/19 10:23:07;;;;;;;9.25;2.40;;;;;;;13.40;84.08;102456.31;6282911;22;20002;-94
2022/10/19 10:25:41;;;;;;;9.07;2.95;;;;;;;13.56;81.34;102455.22;6282066;22;20003;-92
2022/10/19 10:28:48;;;;;;;8.88;2.67;;;;;;;13.72;83.35;102445.91;6280570;22;20003;-95
2022/10/19 10:35:10;;;;;;;9.55;2.60;;;;;;;14.14;81.12;102441.41;6133770;23;20014;-93
2022/10/19 10:41:20;;;;;;;9.35;2.85;;;;;;;14.69;76.84;102418.78;6266710;22;20004;-95
2022/10/19 10:44:05;;;;;;;10.35;2.50;;;;;;;14.90;74.05;102426.84;6251177;22;20008;-95
2022/10/19 10:47:07;;;;;;;7.30;2.20;;;;;;;15.13;74.45;102414.69;6251229;22;20437;-96
2022/10/19 10:49:54;;;;;;;8.27;2.38;;;;;;;15.59;72.67;102418.53;6251144;22;20010;-95
2022/10/19 10:52:27;;;;;;;9.85;2.92;;;;;;;16.39;70.63;102412.09;6251686;22;20373;-94
2022/10/19 10:55:25;;;;;;;10.88;3.10;;;;;;;18.44;67.87;102415.41;6250658;22;20003;-95
2022/10/19 10:58:20;;;;;;;;;;;;;;;;;;;;;
2022/10/19 11:01:20;;;;;;;10.63;2.30;;;;;;;24.49;54.98;102401.91;6278736;22;20070;-95
2022/10/19 11:04:19;;;;;;;;;;;;;;;;;;;;;
2022/10/19 11:07:31;;;;;;;;;;;;;;;;;;;;;
2022/10/19 11:10:38;;;;;;;4.95;2.30;;;;;;;28.80;37.72;102380.34;6279702;22;20078;-94
2022/10/19 11:13:43;;;;;;;8.00;3.00;;;;;;;30.30;36.07;102384.88;6254772;22;20004;-94
2022/10/19 11:16:25;;;;;;;9.93;3.50;;;;;;;31.02;33.35;102372.06;6254662;22;20447;-95
2022/10/19 11:19:22;;;;;;;7.28;2.92;;;;;;;31.52;31.67;102368.25;6253022;22;20004;-95
2022/10/19 11:22:21;;;;;;;7.38;2.70;;;;;;;33.01;30.97;102360.97;6273813;22;20031;-95
2022/10/19 11:25:26;;;;;;;9.48;3.08;;;;;;;34.01;29.18;102346.72;6278685;22;20015;-95
2022/10/19 11:28:00;;;;;;;7.20;3.33;;;;;;;33.92;25.11;102345.94;6176882;22;20105;-95
2022/10/19 11:30:32;;;;;;;12.07;3.50;;;;;;;34.51;24.31;102339.41;6251619;22;20030;-95
2022/10/19 11:33:58;;;;;;;10.90;3.83;;;;;;;35.11;26.88;102328.75;6251748;22;20003;-96
2022/10/19 11:36:48;;;;;;;8.48;3.65;;;;;;;36.41;24.38;102333.00;6184515;23;20021;-96
2022/10/19 11:39:50;;;;;;;11.82;3.35;;;;;;;37.66;23.63;102314.94;6185873;23;20044;-96
2022/10/19 11:42:26;;;;;;;11.52;4.25;;;;;;;37.47;18.76;102295.91;6245325;22;20361;-96
2022/10/19 11:45:11;;;;;;;12.37;4.60;;;;;;;37.74;21.92;102285.66;6252289;22;20004;-96
2022/10/19 11:47:50;;;;;;;10.75;4.20;;;;;;;38.43;18.00;102279.47;6253588;22;20004;-96
2022/10/19 11:51:15;;;;;;;;;;;;;;;;;;;;;
2022/10/19 11:54:05;;;;;;;12.40;4.38;;;;;;;39.74;19.20;102239.97;6285351;22;20007;-96
2022/10/19 11:57:19;;;;;;;;;;;;;;;;;;;;;
2022/10/19 12:00:07;;;;;;;7.30;4.57;;;;;;;42.25;15.42;102232.06;6185535;23;20120;-96
2022/10/19 12:03:08;;;;;;;;;;;;;;;;;;;;;
2022/10/19 12:06:10;;;;;;;12.15;5.10;;;;;;;44.04;16.45;102213.16;6273371;22;20098;-96
2022/10/19 12:09:07;;;;;;;;;;;;;;;;;;;;;
2022/10/19 12:12:11;;;;;;;;;;;;;;;;;;;;;
2022/10/19 12:15:04;;;;;;;11.70;4.93;;;;;;;43.79;12.68;102207.53;6281554;22;20038;-96
2022/10/19 12:17:51;;;;;;;8.77;5.15;;;;;;;43.35;13.84;102197.44;6281577;22;20008;-96
2022/10/19 12:20:29;;;;;;;12.02;5.32;;;;;;;43.35;13.28;102203.16;6280934;22;20008;-96
2022/10/19 12:23:21;;;;;;;7.97;4.70;;;;;;;43.41;13.14;102201.53;6257091;22;20057;-96
2022/10/19 12:27:04;;;;;;;;;;;;;;;;;;;;;
2022/10/19 12:29:54;;;;;;;8.53;4.93;;;;;;;44.42;13.30;102184.75;6172134;22;20032;-96
2022/10/19 12:32:46;;;;;;;;;;;;;;;;;;;;;
2022/10/19 12:35:52;;;;;;;10.15;5.85;;;;;;;45.63;13.14;102163.97;6270222;22;20046;-96
2022/10/19 12:39:08;;;;;;;9.75;5.78;;;;;;;45.44;13.11;102156.84;6289322;22;20513;-96
2022/10/19 12:42:27;;;;;;;;;;;;;;;;;;;;;
2022/10/19 12:51:28;;;;;;;;;;;;;;;;;;;;;
2022/10/19 12:54:15;;;;;;;9.10;5.40;;;;;;;44.62;12.16;102119.19;6292735;22;20035;-96
2022/10/19 13:00:06;;;;;;;;;;;;;;;;;;;;;
2022/10/19 13:03:10;;;;;;;8.43;5.03;;;;;;;44.85;11.75;102137.81;6220417;22;20090;-96
2022/10/19 13:05:41;;;;;;;7.22;5.47;;;;;;;44.28;10.83;102122.75;6271400;22;20011;-96
2022/10/19 13:08:37;;;;;;;;;;;;;;;;;;;;;
2022/10/19 13:11:34;;;;;;;;;;;;;;;;;;;;;
2022/10/19 13:14:46;;;;;;;8.30;5.37;;;;;;;43.17;12.64;102126.13;6292502;22;20042;-96
2022/10/19 13:17:35;;;;;;;9.75;5.15;;;;;;;41.46;13.63;102121.41;6284632;22;20038;-96
2022/10/19 13:20:35;;;;;;;9.82;4.90;;;;;;;40.56;14.08;102106.56;6286996;22;20086;-96
2022/10/19 13:23:05;;;;;;;8.63;4.70;;;;;;;37.74;14.67;102106.47;6236487;22;20018;-96
2022/10/19 13:25:45;;;;;;;6.57;4.47;;;;;;;36.13;17.03;102093.66;6283373;22;20086;-96
2022/10/19 13:28:20;;;;;;;12.07;4.30;;;;;;;35.43;17.17;102094.84;6259616;22;20011;-96
2022/10/19 13:31:29;;;;;;;7.20;4.28;;;;;;;34.86;19.00;102087.41;6283049;22;20010;-96
2022/10/19 13:34:08;;;;;;;;;;;;;;;;;;;;;
2022/10/19 13:36:47;;;;;;;;;;;;;;;;;;;;;
2022/10/19 13:39:28;;;;;;;6.28;3.88;;;;;;;31.42;21.72;102074.09;6310132;22;20139;-94
2022/10/19 13:42:05;;;;;;;10.00;3.70;;;;;;;30.96;22.31;102079.09;6281719;22;20315;-95
2022/10/19 13:44:46;;;;;;;;;;;;;;;;;;;;;
2022/10/19 13:47:53;;;;;;;13.25;3.60;;;;;;;31.04;22.69;102057.88;6286472;22;20086;-94
2022/10/19 13:50:41;;;;;;;7.53;3.30;;;;;;;29.98;23.83;102055.72;6293158;22;20007;-94
2022/10/19 13:54:00;;;;;;;;;;;;;;;;;;;;;
2022/10/19 13:56:36;;;;;;;9.57;2.97;;;;;;;28.94;24.59;102046.03;6305513;22;20094;-94
2022/10/19 13:59:19;;;;;;;8.60;3.47;;;;;;;28.83;25.09;102045.44;6281563;22;20011;-95
2022/10/19 14:02:17;;;;;;;6.90;2.75;;;;;;;29.30;24.96;102048.06;6281812;22;20042;-94
2022/10/19 14:05:23;;;;;;;7.05;3.38;;;;;;;29.04;25.37;102053.34;6280843;22;20022;-94
2022/10/19 14:08:15;;;;;;;7.05;3.10;;;;;;;29.88;25.08;102040.00;6282944;22;19995;-95
2022/10/19 14:10:48;;;;;;;10.93;3.30;;;;;;;30.71;23.22;102033.88;6282372;22;20004;-95
2022/10/19 14:13:25;;;;;;;;;;;;;;;;;;;;;
2022/10/19 14:16:21;;;;;;;7.68;3.30;;;;;;;31.49;22.83;102046.34;6284945;22;20062;-94
2022/10/19 14:19:06;;;;;;;;;;;;;;;;;;;;;
2022/10/19 14:21:40;;;;;;;12.02;4.03;;;;;;;33.11;21.14;102049.69;6310469;22;20070;-95
2022/10/19 14:24:29;;;;;;;7.33;3.70;;;;;;;35.11;19.73;102037.47;6283179;22;20082;-94
2022/10/19 14:27:05;;;;;;;;;;;;;;;;;;;;;
2022/10/19 14:29:54;;;;;;;10.13;3.72;;;;;;;36.89;18.69;102043.91;6309196;22;20082;-95
2022/10/19 14:32:30;;;;;;;8.75;3.60;;;;;;;37.72;17.42;102040.88;6256138;22;20003;-95
2022/10/19 14:35:27;;;;;;;;;;;;;;;;;;;;;
2022/10/19 14:38:20;;;;;;;7.67;3.97;;;;;;;39.17;16.46;102029.94;6309379;22;20114;-95
2022/10/19 14:40:51;;;;;;;7.43;4.63;;;;;;;38.83;15.81;102025.00;6282106;22;20429;-95
2022/10/19 14:43:31;;;;;;;6.53;3.97;;;;;;;38.97;16.58;102023.56;6282708;22;20007;-95
2022/10/19 14:46:10;;;;;;;9.43;3.92;;;;;;;38.02;17.01;102020.41;6281971;22;20033;-95
2022/10/19 14:48:44;;;;;;;8.40;4.03;;;;;;;36.33;17.82;102018.31;6281307;22;20022;-94
2022/10/19 14:51:39;;;;;;;7.17;3.50;;;;;;;34.86;19.81;102014.94;6282061;22;20011;-95
2022/10/19 14:54:53;;;;;;;;;;;;;;;;;;;;;
2022/10/19 14:57:47;;;;;;;;;;;;;;;;;;;;;
2022/10/19 15:00:24;;;;;;;6.43;2.90;;;;;;;35.12;19.11;101980.72;6308124;22;20078;-95
2022/10/19 15:03:08;;;;;;;7.28;3.40;;;;;;;35.33;18.88;101993.00;6256408;22;20020;-96
2022/10/19 15:05:49;;;;;;;7.20;3.30;;;;;;;35.02;19.02;101995.31;6281822;22;20007;-95
2022/10/19 15:11:22;;;;;;;8.43;3.35;;;;;;;30.66;22.95;101978.00;6309101;22;20007;-95
2022/10/19 15:13:56;;;;;;;7.72;3.03;;;;;;;28.60;25.25;101983.09;6281675;22;20052;-95
2022/10/19 15:16:33;;;;;;;8.27;3.50;;;;;;;27.13;27.81;101984.16;6282253;22;20421;-89
2022/10/19 15:19:09;;;;;;;7.10;2.90;;;;;;;26.06;29.21;101975.97;6311674;22;20074;-86
2022/10/19 15:21:37;;;;;;;5.18;2.65;;;;;;;25.17;31.30;101973.31;6280572;22;20009;-86
2022/10/19 15:24:14;;;;;;;10.00;3.00;;;;;;;24.56;32.04;101972.47;6255720;22;20038;-86
2022/10/19 15:26:42;;;;;;;9.38;2.90;;;;;;;23.83;33.85;101987.56;6280942;22;20060;-85
2022/10/19 15:29:18;;;;;;;5.05;2.70;;;;;;;23.17;35.10;101967.00;6281369;22;20271;-86
2022/10/19 15:31:43;;;;;;;7.13;2.43;;;;;;;22.71;36.36;101977.91;6280429;22;20422;-85
2022/10/19 15:34:24;;;;;;;7.72;2.53;;;;;;;22.30;36.48;101970.19;6280818;22;20041;-87
2022/10/19 15:36:55;;;;;;;6.50;2.10;;;;;;;21.60;38.84;101961.97;6281361;22;20523;-86
2022/10/19 15:39:30;;;;;;;8.63;2.40;;;;;;;21.22;39.59;101968.47;6308300;22;20000;-85
2022/10/19 15:41:55;;;;;;;13.15;2.80;;;;;;;20.97;40.99;101965.16;6281214;22;20058;-85
2022/10/19 15:44:39;;;;;;;9.43;2.70;;;;;;;21.07;39.78;101963.59;6255482;22;20311;-85
2022/10/19 15:47:18;;;;;;;11.60;2.90;;;;;;;21.10;40.05;101944.63;6281251;22;20003;-85
2022/10/19 15:49:44;;;;;;;13.75;3.10;;;;;;;20.76;41.29;101953.06;6281883;22;20086;-85
2022/10/19 15:52:14;;;;;;;8.85;3.03;;;;;;;20.35;41.71;101949.75;6281265;22;20007;-85
2022/10/19 15:54:42;;;;;;;7.93;3.03;;;;;;;19.75;43.81;101946.63;6280420;22;20004;-85
2022/10/19 15:57:24;;;;;;;8.93;2.58;;;;;;;19.41;43.98;101943.00;6307940;22;20377;-85
2022/10/19 15:59:54;;;;;;;12.27;2.60;;;;;;;18.78;45.99;101937.44;6275163;22;20012;-85
2022/10/19 16:02:25;;;;;;;8.73;2.30;;;;;;;18.41;48.00;101935.84;6277094;22;20087;-84
2022/10/19 16:04:54;;;;;;;7.30;2.40;;;;;;;17.99;49.26;101935.16;6277381;22;20015;-84
2022/10/19 16:07:29;;;;;;;5.63;1.90;;;;;;;17.54;50.20;101929.13;6277200;22;20004;-84
2022/10/19 16:13:24;;;;;;;3.58;2.03;;;;;;;17.03;51.34;101926.94;6276944;22;20006;-84
2022/10/19 16:16:19;;;;;;;7.30;2.55;;;;;;;16.84;50.98;101930.53;6275318;22;20057;-83
2022/10/19 16:18:45;;;;;;;6.85;1.90;;;;;;;16.42;54.27;101933.16;6275917;22;20326;-83
2022/10/19 16:21:23;;;;;;;7.10;2.17;;;;;;;16.17;55.52;101940.59;6277046;22;20008;-83
2022/10/19 16:23:50;;;;;;;10.23;2.25;;;;;;;15.95;56.06;101935.53;6277406;22;20004;-83
2022/10/19 16:26:17;;;;;;;7.22;2.38;;;;;;;15.70;57.10;101939.09;6276666;22;20007;-84
2022/10/19 16:28:43;;;;;;;7.30;2.20;;;;;;;15.46;58.08;101928.94;6277075;22;20011;-84
2022/10/19 16:31:09;;;;;;;4.75;2.20;;;;;;;15.34;58.90;101931.56;6276913;22;20318;-84